Ocean Falls, Canada
Current Conditions -  °F | °C
As of 7:25 PM on Saturday 20 Dec 2014 (Local Time) from CBBC Reporting Station
Light Rain Light Rain  
Wind Chill: 39°   Ceiling: 2800
Heat Index: 43°   Visibility: 9mi
Dew Point: 41°   Wind: 6mph
Humidity: 93%   Direction: 130°SE
Pressure: 29.26"   Gusts: NA
Location:  52.35°N, 127.7°W
Report Text: CBBC 210325Z AUTO 13005KT 9SM -RA FEW005 OVC028 06/05 A2926 RMK SLP908
Loading
Personal Weather Stations






























Interactive Weather Map New forecast layout! Learn more

10-Day Weather Forecast

Advertisements
Track Severe Weather on mobile